Lula, MS (38644)

5:51 PM CDT on March 27, 2017 (GMT -0500)
Dundee | | Change Station
Active Advisory: Severe Thunderstorm Watch

Elev 0 ft 34.51 °N, 90.42 °W | Updated 16 seconds ago

Partly Cloudy
Partly Cloudy
80.6 °F
Feels Like 83 °F
N
8.1
Wind Variable Wind from West
Gusts 9.8 mph

Today
High -- | Low -- °F
--% Chance of Precip.
Yesterday
High -- | Low -- °F
Precip. -- in
Pressure 29.78 in
Visibility 10.0 miles
Clouds Scattered Clouds 5000 ft
Mostly Cloudy 6500 ft
Heat Index 83 °F
Dew Point 66 °F
Humidity 62%
Rainfall 0.00 in
Snow Depth Not available.
6:55 AM 7:19 PM
Waning Crescent, 0% visible
METAR KCKM 272255Z AUTO 20010KT 10SM SCT050 BKN065 27/18 A2978 RMK A01
Pressure 29.78 in
Visibility 10.0 miles
Clouds Scattered Clouds 5000 ft
Mostly Cloudy 6500 ft
Heat Index 83 °F
Dew Point 66 °F
Humidity 62%
Rainfall 0.00 in
Snow Depth Not available.
6:55 AM 7:19 PM
Waning Crescent, 0% visible
METAR KCKM 272255Z AUTO 20010KT 10SM SCT050 BKN065 27/18 A2978 RMK A01

Get Your Daily Forecast Email!

Thanks for signing up!

Be on the lookout for a verification email in your inbox.

You'll start receiving severe weather alerts in your inbox..

×

10-Day Weather Forecast

Almanac

Astronomy

Mar. 27, 2017 Rise Set
Actual Time
Civil Twilight
Nautical Twilight
Astronomical Twilight
Moon
Length of Visible Light
Length of Day
Tomorrow will be .
, % of the Moon is Illuminated

Today's Extremes

State Highs State Lows

Community

WunderPhotos

Upload Photos

1,962,540 photos uploaded!

WunderBlog® & News

Nearby

Air Quality

  Air Quality AQ Index Pollutant
Not available.

Snow Depth

Station Depth Elevation

Earthquake Activity

City Distance Mag. Time & Date
Minimum magnitude displayed is 2.5.

Earthquake Activity

City Distance Mag. Time & Date
Minimum magnitude displayed is 2.5.

Coastal Water Temperatures

Place Temperature

Stations

Nearby Weather Stations

Station Location Temp. Windchill Dew Point Humidity Wind Precip. Elev Updated Type
                   

Watches & Warnings

Severe Thunderstorm Watch
Issued: 5:43 PM CDT Mar. 27, 2017 – National Weather Service

Severe Thunderstorm Watch 89 remains in effect until 800 PM CDT

MS
. Mississippi counties included are

Alcorn Benton Calhoun
Chickasaw Coahoma DeSoto
Itawamba Lafayette Lee
Marshall Monroe Panola
Pontotoc Prentiss Quitman
Tallahatchie Tate Tippah
Tishomingo Tunica Union
Yalobusha